Time,TemperatureF,DewpointF,PressureIn,WindDirection,WindDirectionDegrees,WindSpeedMPH,WindSpeedGustMPH,Humidity,HourlyPrecipIn,Conditions,Clouds,dailyrainin,SoftwareType,DateUTC
2013-06-24 00:00:00,60.5,39.6,29.45,NNW,338,0.0,0.0,46,0.00,,,0.00,Wunderground v.1.15,2013-06-24 06:00:00,
2013-06-24 00:05:00,60.3,38.9,29.43,NNW,337,0.0,0.0,45,0.00,,,0.00,Wunderground v.1.15,2013-06-24 06:05:00,
2013-06-24 00:15:00,58.6,38.4,29.44,West,275,1.0,2.0,47,0.00,,,0.00,Wunderground v.1.15,2013-06-24 06:15:00,
2013-06-24 00:20:00,58.3,38.7,29.45,West,275,1.0,1.0,48,0.00,,,0.00,Wunderground v.1.15,2013-06-24 06:20:00,
2013-06-24 00:25:00,58.4,38.2,29.45,West,275,0.0,1.0,47,0.00,,,0.00,Wunderground v.1.15,2013-06-24 06:25:00,
2013-06-24 00:40:00,59.1,38.3,29.44,West,275,0.0,0.0,46,0.00,,,0.00,Wunderground v.1.15,2013-06-24 06:40:00,
2013-06-24 00:45:00,59.4,38.6,29.44,West,275,0.0,0.0,46,0.00,,,0.00,Wunderground v.1.15,2013-06-24 06:45:00,
2013-06-24 00:55:00,59.0,39.9,29.43,NNW,340,2.0,3.0,49,0.00,,,0.00,Wunderground v.1.15,2013-06-24 06:55:00,
2013-06-24 01:00:00,58.6,40.0,29.43,North,355,2.0,2.0,50,0.00,,,0.00,Wunderground v.1.15,2013-06-24 07:00:00,
2013-06-24 01:05:00,58.1,38.5,29.43,North,355,1.0,2.0,48,0.00,,,0.00,Wunderground v.1.15,2013-06-24 07:05:00,
2013-06-24 01:20:00,56.6,38.2,29.43,NE,49,0.0,0.0,50,0.00,,,0.00,Wunderground v.1.15,2013-06-24 07:20:00,
2013-06-24 01:30:00,55.7,37.8,29.44,NE,49,0.0,0.0,51,0.00,,,0.00,Wunderground v.1.15,2013-06-24 07:30:00,
2013-06-24 01:40:00,55.5,38.6,29.44,NE,53,1.0,1.0,53,0.00,,,0.00,Wunderground v.1.15,2013-06-24 07:40:00,
2013-06-24 01:50:00,54.8,38.5,29.44,NE,53,0.0,0.0,54,0.00,,,0.00,Wunderground v.1.15,2013-06-24 07:50:00,
2013-06-24 01:55:00,54.9,39.0,29.44,NE,53,0.0,2.0,55,0.00,,,0.00,Wunderground v.1.15,2013-06-24 07:55:00,
2013-06-24 02:05:00,54.4,39.5,29.44,NE,53,1.0,1.0,57,0.00,,,0.00,Wunderground v.1.15,2013-06-24 08:05:00,
2013-06-24 02:15:00,53.9,39.9,29.44,NE,53,0.0,0.0,59,0.00,,,0.00,Wunderground v.1.15,2013-06-24 08:15:00,
2013-06-24 02:25:00,53.5,39.5,29.44,NE,53,0.0,0.0,59,0.00,,,0.00,Wunderground v.1.15,2013-06-24 08:25:00,
2013-06-24 02:30:00,53.1,39.6,29.44,NE,53,0.0,0.0,60,0.00,,,0.00,Wunderground v.1.15,2013-06-24 08:30:00,
2013-06-24 02:35:00,52.7,39.6,29.44,NE,53,0.0,0.0,61,0.00,,,0.00,Wunderground v.1.15,2013-06-24 08:35:00,
2013-06-24 02:40:00,52.5,39.4,29.44,NE,53,0.0,0.0,61,0.00,,,0.00,Wunderground v.1.15,2013-06-24 08:40:00,
2013-06-24 02:45:00,53.0,39.5,29.44,NE,53,0.0,0.0,60,0.00,,,0.00,Wunderground v.1.15,2013-06-24 08:45:00,
2013-06-24 03:05:00,52.8,38.9,29.43,NE,53,1.0,1.0,59,0.00,,,0.00,Wunderground v.1.15,2013-06-24 09:05:00,
2013-06-24 03:15:00,53.1,38.3,29.43,NE,53,0.0,1.0,57,0.00,,,0.00,Wunderground v.1.15,2013-06-24 09:15:00,
2013-06-24 03:20:00,53.2,38.4,29.43,NE,53,0.0,0.0,57,0.00,,,0.00,Wunderground v.1.15,2013-06-24 09:20:00,
2013-06-24 03:25:00,52.1,38.6,29.44,NE,53,0.0,0.0,60,0.00,,,0.00,Wunderground v.1.15,2013-06-24 09:25:00,
2013-06-24 03:30:00,51.2,38.2,29.45,NE,53,0.0,1.0,61,0.00,,,0.00,Wunderground v.1.15,2013-06-24 09:30:00,
2013-06-24 03:40:00,50.3,37.8,29.45,NE,53,0.0,0.0,62,0.00,,,0.00,Wunderground v.1.15,2013-06-24 09:40:00,
2013-06-24 03:55:00,50.0,38.3,29.45,NNE,24,0.0,1.0,64,0.00,,,0.00,Wunderground v.1.15,2013-06-24 09:55:00,
2013-06-24 04:05:00,49.7,38.8,29.47,NNE,24,0.0,0.0,66,0.00,,,0.00,Wunderground v.1.15,2013-06-24 10:05:00,
2013-06-24 04:15:00,50.1,37.6,29.48,NNE,24,0.0,1.0,62,0.00,,,0.00,Wunderground v.1.15,2013-06-24 10:15:00,
2013-06-24 04:25:00,50.1,38.4,29.48,NNE,24,0.0,0.0,64,0.00,,,0.00,Wunderground v.1.15,2013-06-24 10:25:00,
2013-06-24 04:30:00,50.5,38.8,29.47,NE,35,1.0,1.0,64,0.00,,,0.00,Wunderground v.1.15,2013-06-24 10:30:00,
2013-06-24 04:45:00,49.6,38.3,29.48,NE,34,0.0,0.0,65,0.00,,,0.00,Wunderground v.1.15,2013-06-24 10:45:00,
2013-06-24 04:55:00,50.0,37.1,29.49,East,86,0.0,2.0,61,0.00,,,0.00,Wunderground v.1.15,2013-06-24 10:55:00,
2013-06-24 05:10:00,50.1,38.0,29.49,West,277,1.0,3.0,63,0.00,,,0.00,Wunderground v.1.15,2013-06-24 11:10:00,
2013-06-24 05:15:00,50.2,37.7,29.49,NW,318,1.0,3.0,62,0.00,,,0.00,Wunderground v.1.15,2013-06-24 11:15:00,
2013-06-24 05:25:00,50.1,37.6,29.49,WNW,295,1.0,1.0,62,0.00,,,0.00,Wunderground v.1.15,2013-06-24 11:25:00,
2013-06-24 05:35:00,49.7,37.2,29.50,West,274,1.0,1.0,62,0.00,,,0.00,Wunderground v.1.15,2013-06-24 11:35:00,
2013-06-24 05:45:00,50.0,37.9,29.51,West,275,0.0,0.0,63,0.00,,,0.00,Wunderground v.1.15,2013-06-24 11:45:00,
2013-06-24 05:50:00,50.2,37.7,29.50,West,276,0.0,0.0,62,0.00,,,0.00,Wunderground v.1.15,2013-06-24 11:50:00,
2013-06-24 06:00:00,50.6,37.6,29.51,West,277,0.0,1.0,61,0.00,,,0.00,Wunderground v.1.15,2013-06-24 12:00:00,
2013-06-24 06:10:00,51.1,38.1,29.52,West,277,0.0,0.0,61,0.00,,,0.00,Wunderground v.1.15,2013-06-24 12:10:00,
2013-06-24 06:15:00,51.0,38.4,29.52,SW,227,1.0,4.0,62,0.00,,,0.00,Wunderground v.1.15,2013-06-24 12:15:00,
2013-06-24 06:25:00,50.3,38.2,29.53,WNW,299,1.0,4.0,63,0.00,,,0.00,Wunderground v.1.15,2013-06-24 12:25:00,
2013-06-24 06:35:00,50.3,37.4,29.53,SSW,203,2.0,2.0,61,0.00,,,0.00,Wunderground v.1.15,2013-06-24 12:35:00,
2013-06-24 06:40:00,50.4,37.4,29.53,SSW,204,2.0,2.0,61,0.00,,,0.00,Wunderground v.1.15,2013-06-24 12:40:00,
2013-06-24 06:50:00,50.8,38.2,29.53,WNW,288,0.0,0.0,62,0.00,,,0.00,Wunderground v.1.15,2013-06-24 12:50:00,
2013-06-24 06:55:00,51.0,38.0,29.53,North,360,1.0,1.0,61,0.00,,,0.00,Wunderground v.1.15,2013-06-24 12:55:00,
2013-06-24 07:00:00,51.3,38.3,29.53,WNW,286,1.0,1.0,61,0.00,,,0.00,Wunderground v.1.15,2013-06-24 13:00:00,
2013-06-24 07:05:00,52.3,37.5,29.53,NE,39,1.0,1.0,57,0.00,,,0.00,Wunderground v.1.15,2013-06-24 13:05:00,
2013-06-24 07:15:00,54.1,38.7,29.53,WSW,246,2.0,2.0,56,0.00,,,0.00,Wunderground v.1.15,2013-06-24 13:15:00,
2013-06-24 07:25:00,54.5,38.2,29.53,WSW,247,1.0,2.0,54,0.00,,,0.00,Wunderground v.1.15,2013-06-24 13:25:00,
2013-06-24 07:30:00,54.4,39.5,29.53,WSW,246,0.0,0.0,57,0.00,,,0.00,Wunderground v.1.15,2013-06-24 13:30:00,
2013-06-24 07:35:00,54.4,37.1,29.53,WSW,248,0.0,0.0,52,0.00,,,0.00,Wunderground v.1.15,2013-06-24 13:35:00,
2013-06-24 07:40:00,54.9,40.4,29.53,WSW,243,1.0,1.0,58,0.00,,,0.00,Wunderground v.1.15,2013-06-24 13:40:00,
2013-06-24 07:50:00,55.6,40.1,29.53,West,269,0.0,0.0,56,0.00,,,0.00,Wunderground v.1.15,2013-06-24 13:50:00,
2013-06-24 08:00:00,57.2,41.2,29.53,West,269,0.0,0.0,55,0.00,,,0.00,Wunderground v.1.15,2013-06-24 14:00:00,
2013-06-24 08:10:00,58.0,40.5,29.56,WSW,257,1.0,1.0,52,0.00,,,0.00,Wunderground v.1.15,2013-06-24 14:10:00,
2013-06-24 08:25:00,59.5,40.8,29.57,WSW,257,0.0,1.0,50,0.00,,,0.00,Wunderground v.1.15,2013-06-24 14:25:00,
2013-06-24 08:30:00,60.5,41.2,29.56,West,259,0.0,0.0,49,0.00,,,0.00,Wunderground v.1.15,2013-06-24 14:30:00,
2013-06-24 08:40:00,62.5,43.6,29.55,NW,319,0.0,0.0,50,0.00,,,0.00,Wunderground v.1.15,2013-06-24 14:40:00,
2013-06-24 08:45:00,63.1,42.0,29.55,NW,319,0.0,0.0,46,0.00,,,0.00,Wunderground v.1.15,2013-06-24 14:45:00,
2013-06-24 08:50:00,64.2,41.2,29.54,NW,318,0.0,0.0,43,0.00,,,0.00,Wunderground v.1.15,2013-06-24 14:50:00,
2013-06-24 08:55:00,65.4,42.3,29.54,NW,319,0.0,0.0,43,0.00,,,0.00,Wunderground v.1.15,2013-06-24 14:55:00,
2013-06-24 09:00:00,66.6,43.4,29.53,NW,319,0.0,0.0,43,0.00,,,0.00,Wunderground v.1.15,2013-06-24 15:00:00,
2013-06-24 09:05:00,67.8,44.5,29.57,NW,319,0.0,0.0,43,0.00,,,0.00,Wunderground v.1.15,2013-06-24 15:05:00,
2013-06-24 09:15:00,70.2,44.7,29.56,NE,38,2.0,3.0,40,0.00,,,0.00,Wunderground v.1.15,2013-06-24 15:15:00,
2013-06-24 09:20:00,71.7,44.7,29.56,NE,51,2.0,3.0,38,0.00,,,0.00,Wunderground v.1.15,2013-06-24 15:20:00,
2013-06-24 09:25:00,73.3,43.2,29.55,ENE,72,2.0,4.0,34,0.00,,,0.00,Wunderground v.1.15,2013-06-24 15:25:00,
2013-06-24 09:30:00,75.6,37.3,29.54,East,79,2.0,4.0,25,0.00,,,0.00,Wunderground v.1.15,2013-06-24 15:30:00,
2013-06-24 09:35:00,77.6,39.0,29.53,ENE,76,2.0,4.0,25,0.00,,,0.00,Wunderground v.1.15,2013-06-24 15:35:00,
2013-06-24 09:45:00,80.0,38.9,29.51,East,84,3.0,4.0,23,0.00,,,0.00,Wunderground v.1.15,2013-06-24 15:45:00,
2013-06-24 09:50:00,81.8,38.0,29.50,SE,132,4.0,6.0,21,0.00,,,0.00,Wunderground v.1.15,2013-06-24 15:50:00,
2013-06-24 10:00:00,82.6,37.5,29.50,South,184,5.0,10.0,20,0.00,,,0.00,Wunderground v.1.15,2013-06-24 16:00:00,
2013-06-24 10:05:00,82.3,35.9,29.52,SW,221,9.0,11.0,19,0.00,,,0.00,Wunderground v.1.15,2013-06-24 16:05:00,
2013-06-24 10:15:00,82.0,34.3,29.52,SSW,196,10.0,11.0,18,0.00,,,0.00,Wunderground v.1.15,2013-06-24 16:15:00,
2013-06-24 10:20:00,81.9,34.2,29.52,SW,221,10.0,13.0,18,0.00,,,0.00,Wunderground v.1.15,2013-06-24 16:20:00,
2013-06-24 10:25:00,82.3,35.9,29.52,SW,223,13.0,13.0,19,0.00,,,0.00,Wunderground v.1.15,2013-06-24 16:25:00,
2013-06-24 10:30:00,82.9,36.4,29.51,SW,216,12.0,12.0,19,0.00,,,0.00,Wunderground v.1.15,2013-06-24 16:30:00,
2013-06-24 10:35:00,83.6,37.0,29.50,SSW,213,9.0,12.0,19,0.00,,,0.00,Wunderground v.1.15,2013-06-24 16:35:00,
2013-06-24 10:40:00,84.2,34.6,29.51,SSW,208,9.0,12.0,17,0.00,,,0.00,Wunderground v.1.15,2013-06-24 16:40:00,
2013-06-24 10:50:00,84.0,35.9,29.51,SSW,197,8.0,8.0,18,0.00,,,0.00,Wunderground v.1.15,2013-06-24 16:50:00,
2013-06-24 10:55:00,84.8,36.6,29.51,SSW,210,8.0,11.0,18,0.00,,,0.00,Wunderground v.1.15,2013-06-24 16:55:00,
2013-06-24 11:10:00,85.1,33.8,29.53,SE,136,7.0,7.0,16,0.00,,,0.00,Wunderground v.1.15,2013-06-24 17:10:00,
2013-06-24 11:20:00,85.9,36.0,29.52,SSE,160,7.0,7.0,17,0.00,,,0.00,Wunderground v.1.15,2013-06-24 17:20:00,
2013-06-24 11:30:00,86.2,34.7,29.52,SW,218,6.0,9.0,16,0.00,,,0.00,Wunderground v.1.15,2013-06-24 17:30:00,
2013-06-24 11:35:00,86.3,36.3,29.52,SW,221,6.0,9.0,17,0.00,,,0.00,Wunderground v.1.15,2013-06-24 17:35:00,
2013-06-24 11:45:00,87.1,38.4,29.52,SSW,192,8.0,8.0,18,0.00,,,0.00,Wunderground v.1.15,2013-06-24 17:45:00,
2013-06-24 11:50:00,86.7,35.1,29.51,WSW,245,9.0,10.0,16,0.00,,,0.00,Wunderground v.1.15,2013-06-24 17:50:00,
2013-06-24 11:55:00,86.2,36.3,29.51,SW,232,10.0,10.0,17,0.00,,,0.00,Wunderground v.1.15,2013-06-24 17:55:00,
2013-06-24 12:00:00,86.3,36.3,29.51,WNW,285,8.0,11.0,17,0.00,,,0.00,Wunderground v.1.15,2013-06-24 18:00:00,
2013-06-24 12:05:00,86.7,35.1,29.52,ESE,111,7.0,11.0,16,0.00,,,0.00,Wunderground v.1.15,2013-06-24 18:05:00,
2013-06-24 12:15:00,88.4,36.5,29.51,South,175,5.0,11.0,16,0.00,,,0.00,Wunderground v.1.15,2013-06-24 18:15:00,
2013-06-24 12:25:00,89.0,35.3,29.50,NW,319,3.0,5.0,15,0.00,,,0.00,Wunderground v.1.15,2013-06-24 18:25:00,
2013-06-24 12:30:00,88.3,38.0,29.50,WSW,247,4.0,6.0,17,0.00,,,0.00,Wunderground v.1.15,2013-06-24 18:30:00,
2013-06-24 12:40:00,86.9,35.3,29.51,SSW,200,6.0,6.0,16,0.00,,,0.00,Wunderground v.1.15,2013-06-24 18:40:00,
2013-06-24 12:45:00,87.0,35.4,29.50,NW,318,5.0,6.0,16,0.00,,,0.00,Wunderground v.1.15,2013-06-24 18:45:00,
2013-06-24 12:50:00,87.5,37.3,29.50,WSW,246,5.0,7.0,17,0.00,,,0.00,Wunderground v.1.15,2013-06-24 18:50:00,
2013-06-24 13:00:00,87.6,37.4,29.49,South,191,5.0,5.0,17,0.00,,,0.00,Wunderground v.1.15,2013-06-24 19:00:00,
2013-06-24 13:05:00,87.8,37.6,29.51,SSW,195,2.0,5.0,17,0.00,,,0.00,Wunderground v.1.15,2013-06-24 19:05:00,
2013-06-24 13:15:00,88.1,37.8,29.50,SW,214,4.0,14.0,17,0.00,,,0.00,Wunderground v.1.15,2013-06-24 19:15:00,
2013-06-24 13:20:00,87.6,37.4,29.50,SSW,198,7.0,9.0,17,0.00,,,0.00,Wunderground v.1.15,2013-06-24 19:20:00,
2013-06-24 13:25:00,87.4,37.2,29.50,SW,230,10.0,16.0,17,0.00,,,0.00,Wunderground v.1.15,2013-06-24 19:25:00,
2013-06-24 13:30:00,86.1,36.2,29.51,SSW,202,10.0,10.0,17,0.00,,,0.00,Wunderground v.1.15,2013-06-24 19:30:00,
2013-06-24 13:40:00,87.1,37.0,29.50,SSE,153,7.0,12.0,17,0.00,,,0.00,Wunderground v.1.15,2013-06-24 19:40:00,
2013-06-24 13:50:00,87.1,37.0,29.50,SW,217,11.0,11.0,17,0.00,,,0.00,Wunderground v.1.15,2013-06-24 19:50:00,
2013-06-24 13:55:00,87.7,38.9,29.49,SSW,211,12.0,12.0,18,0.00,,,0.00,Wunderground v.1.15,2013-06-24 19:55:00,
2013-06-24 14:05:00,88.3,36.4,29.50,West,261,7.0,19.0,16,0.00,,,0.00,Wunderground v.1.15,2013-06-24 20:05:00,
2013-06-24 14:15:00,86.7,38.1,29.50,WSW,250,14.0,19.0,18,0.00,,,0.00,Wunderground v.1.15,2013-06-24 20:15:00,
2013-06-24 14:25:00,87.1,39.8,29.50,WSW,250,10.0,12.0,19,0.00,,,0.00,Wunderground v.1.15,2013-06-24 20:25:00,
2013-06-24 14:30:00,88.1,40.6,29.50,SW,214,10.0,13.0,19,0.00,,,0.00,Wunderground v.1.15,2013-06-24 20:30:00,
2013-06-24 14:40:00,86.7,36.7,29.50,WSW,257,11.0,11.0,17,0.00,,,0.00,Wunderground v.1.15,2013-06-24 20:40:00,
2013-06-24 14:45:00,86.5,36.5,29.50,South,186,9.0,11.0,17,0.00,,,0.00,Wunderground v.1.15,2013-06-24 20:45:00,
2013-06-24 15:00:00,88.5,39.6,29.49,SW,230,9.0,9.0,18,0.00,,,0.00,Wunderground v.1.15,2013-06-24 21:00:00,
2013-06-24 15:05:00,88.6,39.7,29.50,South,191,7.0,9.0,18,0.00,,,0.00,Wunderground v.1.15,2013-06-24 21:05:00,
2013-06-24 15:10:00,88.7,39.7,29.50,WSW,250,8.0,13.0,18,0.00,,,0.00,Wunderground v.1.15,2013-06-24 21:10:00,
2013-06-24 15:20:00,88.5,39.6,29.50,SSW,197,10.0,10.0,18,0.00,,,0.00,Wunderground v.1.15,2013-06-24 21:20:00,
2013-06-24 15:25:00,88.4,36.5,29.50,SSW,210,7.0,10.0,16,0.00,,,0.00,Wunderground v.1.15,2013-06-24 21:25:00,
2013-06-24 15:40:00,87.4,38.7,29.50,SSW,209,10.0,12.0,18,0.00,,,0.00,Wunderground v.1.15,2013-06-24 21:40:00,
2013-06-24 15:50:00,86.9,38.3,29.51,SSW,207,11.0,11.0,18,0.00,,,0.00,Wunderground v.1.15,2013-06-24 21:50:00,
2013-06-24 15:55:00,87.1,38.4,29.51,South,179,7.0,11.0,18,0.00,,,0.00,Wunderground v.1.15,2013-06-24 21:55:00,
2013-06-24 16:00:00,87.9,40.5,29.50,SW,230,6.0,15.0,19,0.00,,,0.00,Wunderground v.1.15,2013-06-24 22:00:00,
2013-06-24 16:05:00,87.6,38.8,29.50,SSW,202,10.0,15.0,18,0.00,,,0.00,Wunderground v.1.15,2013-06-24 22:05:00,
2013-06-24 16:20:00,87.5,38.8,29.49,SW,229,7.0,7.0,18,0.00,,,0.00,Wunderground v.1.15,2013-06-24 22:20:00,
2013-06-24 16:25:00,87.4,38.7,29.50,West,280,5.0,7.0,18,0.00,,,0.00,Wunderground v.1.15,2013-06-24 22:25:00,
2013-06-24 16:30:00,87.5,41.5,29.49,West,262,4.0,5.0,20,0.00,,,0.00,Wunderground v.1.15,2013-06-24 22:30:00,
2013-06-24 16:35:00,87.1,39.8,29.49,WNW,283,6.0,10.0,19,0.00,,,0.00,Wunderground v.1.15,2013-06-24 22:35:00,
2013-06-24 16:40:00,86.9,41.0,29.49,West,263,10.0,12.0,20,0.00,,,0.00,Wunderground v.1.15,2013-06-24 22:40:00,
2013-06-24 16:50:00,87.3,40.0,29.49,WNW,290,8.0,9.0,19,0.00,,,0.00,Wunderground v.1.15,2013-06-24 22:50:00,
2013-06-24 16:55:00,87.3,38.6,29.49,WSW,246,8.0,9.0,18,0.00,,,0.00,Wunderground v.1.15,2013-06-24 22:55:00,
2013-06-24 17:00:00,87.5,38.8,29.49,SSW,203,6.0,6.0,18,0.00,,,0.00,Wunderground v.1.15,2013-06-24 23:00:00,
2013-06-24 17:10:00,88.2,42.1,29.48,SW,222,1.0,3.0,20,0.00,,,0.00,Wunderground v.1.15,2013-06-24 23:10:00,
2013-06-24 17:20:00,87.5,37.3,29.48,SW,224,8.0,17.0,17,0.00,,,0.00,Wunderground v.1.15,2013-06-24 23:20:00,
2013-06-24 17:25:00,87.4,38.7,29.48,SW,236,13.0,17.0,18,0.00,,,0.00,Wunderground v.1.15,2013-06-24 23:25:00,
2013-06-24 17:30:00,87.4,38.7,29.48,WSW,244,12.0,18.0,18,0.00,,,0.00,Wunderground v.1.15,2013-06-24 23:30:00,
2013-06-24 17:40:00,86.7,38.1,29.48,WSW,250,11.0,11.0,18,0.00,,,0.00,Wunderground v.1.15,2013-06-24 23:40:00,
2013-06-24 17:45:00,86.5,38.0,29.48,SSW,198,11.0,13.0,18,0.00,,,0.00,Wunderground v.1.15,2013-06-24 23:45:00,
2013-06-24 17:55:00,86.5,39.3,29.48,WSW,248,10.0,13.0,19,0.00,,,0.00,Wunderground v.1.15,2013-06-24 23:55:00,
2013-06-24 18:00:00,86.7,38.1,29.48,WSW,247,12.0,12.0,18,0.00,,,0.00,Wunderground v.1.15,2013-06-25 00:00:00,
2013-06-24 18:05:00,86.3,37.8,29.49,West,259,13.0,22.0,18,0.00,,,0.00,Wunderground v.1.15,2013-06-25 00:05:00,
2013-06-24 18:15:00,85.6,37.2,29.48,West,275,15.0,18.0,18,0.00,,,0.00,Wunderground v.1.15,2013-06-25 00:15:00,
2013-06-24 18:20:00,85.3,35.5,29.50,WSW,246,16.0,16.0,17,0.00,,,0.00,Wunderground v.1.15,2013-06-25 00:20:00,
2013-06-24 18:35:00,84.8,36.6,29.50,WSW,250,15.0,16.0,18,0.00,,,0.00,Wunderground v.1.15,2013-06-25 00:35:00,
2013-06-24 18:40:00,84.6,36.4,29.50,WSW,257,15.0,15.0,18,0.00,,,0.00,Wunderground v.1.15,2013-06-25 00:40:00,
2013-06-24 18:50:00,84.1,37.4,29.51,West,259,12.0,17.0,19,0.00,,,0.00,Wunderground v.1.15,2013-06-25 00:50:00,
2013-06-24 19:00:00,84.0,35.9,29.51,West,263,13.0,24.0,18,0.00,,,0.00,Wunderground v.1.15,2013-06-25 01:00:00,
2013-06-24 19:05:00,84.0,35.9,29.49,NW,321,16.0,24.0,18,0.00,,,0.00,Wunderground v.1.15,2013-06-25 01:05:00,
2013-06-24 19:15:00,83.6,37.0,29.49,West,259,14.0,16.0,19,0.00,,,0.00,Wunderground v.1.15,2013-06-25 01:15:00,
2013-06-24 19:25:00,83.3,36.7,29.50,WSW,257,15.0,18.0,19,0.00,,,0.00,Wunderground v.1.15,2013-06-25 01:25:00,
2013-06-24 19:30:00,83.3,36.7,29.51,WSW,257,16.0,18.0,19,0.00,,,0.00,Wunderground v.1.15,2013-06-25 01:30:00,
2013-06-24 19:35:00,82.8,37.6,29.51,SW,231,16.0,18.0,20,0.00,,,0.00,Wunderground v.1.15,2013-06-25 01:35:00,
2013-06-24 19:40:00,83.2,37.9,29.51,SW,219,14.0,16.0,20,0.00,,,0.00,Wunderground v.1.15,2013-06-25 01:40:00,
2013-06-24 19:45:00,83.2,37.9,29.51,SW,220,13.0,16.0,20,0.00,,,0.00,Wunderground v.1.15,2013-06-25 01:45:00,
2013-06-24 19:50:00,82.8,37.6,29.51,WSW,244,10.0,10.0,20,0.00,,,0.00,Wunderground v.1.15,2013-06-25 01:50:00,
2013-06-24 19:55:00,82.5,37.4,29.51,WSW,254,8.0,10.0,20,0.00,,,0.00,Wunderground v.1.15,2013-06-25 01:55:00,
2013-06-24 20:05:00,81.8,38.0,29.48,WSW,252,8.0,9.0,21,0.00,,,0.00,Wunderground v.1.15,2013-06-25 02:05:00,
2013-06-24 20:15:00,81.8,36.8,29.48,WSW,253,9.0,12.0,20,0.00,,,0.00,Wunderground v.1.15,2013-06-25 02:15:00,
2013-06-24 20:20:00,81.7,36.7,29.48,West,273,9.0,11.0,20,0.00,,,0.00,Wunderground v.1.15,2013-06-25 02:20:00,
2013-06-24 20:25:00,81.7,36.7,29.48,SW,233,10.0,11.0,20,0.00,,,0.00,Wunderground v.1.15,2013-06-25 02:25:00,
2013-06-24 20:30:00,81.8,36.8,29.48,WSW,244,10.0,10.0,20,0.00,,,0.00,Wunderground v.1.15,2013-06-25 02:30:00,
2013-06-24 20:40:00,81.4,37.7,29.49,WSW,253,8.0,17.0,21,0.00,,,0.00,Wunderground v.1.15,2013-06-25 02:40:00,
2013-06-24 20:45:00,81.3,37.6,29.49,West,276,11.0,17.0,21,0.00,,,0.00,Wunderground v.1.15,2013-06-25 02:45:00,
2013-06-24 20:50:00,81.5,37.8,29.49,West,268,14.0,17.0,21,0.00,,,0.00,Wunderground v.1.15,2013-06-25 02:50:00,
2013-06-24 20:55:00,81.4,37.7,29.50,WSW,246,15.0,19.0,21,0.00,,,0.00,Wunderground v.1.15,2013-06-25 02:55:00,
2013-06-24 21:00:00,81.5,37.8,29.49,WSW,253,15.0,15.0,21,0.00,,,0.00,Wunderground v.1.15,2013-06-25 03:00:00,
2013-06-24 21:05:00,81.1,37.5,29.44,WSW,250,11.0,15.0,21,0.00,,,0.00,Wunderground v.1.15,2013-06-25 03:05:00,
2013-06-24 21:15:00,80.4,36.9,29.44,WSW,252,5.0,10.0,21,0.00,,,0.00,Wunderground v.1.15,2013-06-25 03:15:00,
2013-06-24 21:25:00,80.0,38.9,29.47,SSW,207,18.0,28.0,23,0.00,,,0.00,Wunderground v.1.15,2013-06-25 03:25:00,
2013-06-24 21:30:00,80.1,37.8,29.47,SSW,205,18.0,18.0,22,0.00,,,0.00,Wunderground v.1.15,2013-06-25 03:30:00,
2013-06-24 21:35:00,80.0,37.7,29.47,South,182,9.0,18.0,22,0.00,,,0.00,Wunderground v.1.15,2013-06-25 03:35:00,
2013-06-24 21:45:00,80.0,37.7,29.47,SW,226,12.0,12.0,22,0.00,,,0.00,Wunderground v.1.15,2013-06-25 03:45:00,
2013-06-24 21:55:00,80.0,37.7,29.47,SW,229,12.0,13.0,22,0.00,,,0.00,Wunderground v.1.15,2013-06-25 03:55:00,
2013-06-24 22:00:00,79.7,37.5,29.46,SW,229,9.0,9.0,22,0.00,,,0.00,Wunderground v.1.15,2013-06-25 04:00:00,
2013-06-24 22:05:00,79.4,37.2,29.46,WSW,240,7.0,9.0,22,0.00,,,0.00,Wunderground v.1.15,2013-06-25 04:05:00,
2013-06-24 22:10:00,79.2,38.2,29.46,SW,225,6.0,9.0,23,0.00,,,0.00,Wunderground v.1.15,2013-06-25 04:10:00,
2013-06-24 22:15:00,79.4,37.2,29.46,SSW,206,7.0,9.0,22,0.00,,,0.00,Wunderground v.1.15,2013-06-25 04:15:00,
2013-06-24 22:20:00,79.3,37.1,29.46,SSW,210,5.0,5.0,22,0.00,,,0.00,Wunderground v.1.15,2013-06-25 04:20:00,
2013-06-24 22:25:00,79.3,37.1,29.46,SSW,213,4.0,5.0,22,0.00,,,0.00,Wunderground v.1.15,2013-06-25 04:25:00,
2013-06-24 22:30:00,79.2,37.1,29.46,SSW,213,3.0,3.0,22,0.00,,,0.00,Wunderground v.1.15,2013-06-25 04:30:00,
2013-06-24 22:35:00,79.1,37.0,29.45,SSW,199,2.0,3.0,22,0.00,,,0.00,Wunderground v.1.15,2013-06-25 04:35:00,
2013-06-24 22:45:00,78.8,36.7,29.46,SSW,192,1.0,1.0,22,0.00,,,0.00,Wunderground v.1.15,2013-06-25 04:45:00,
2013-06-24 22:50:00,78.7,37.8,29.45,South,180,1.0,2.0,23,0.00,,,0.00,Wunderground v.1.15,2013-06-25 04:50:00,
2013-06-24 23:00:00,78.3,37.4,29.46,South,175,1.0,1.0,23,0.00,,,0.00,Wunderground v.1.15,2013-06-25 05:00:00,
2013-06-24 23:05:00,77.8,39.1,29.45,South,175,0.0,1.0,25,0.00,,,0.00,Wunderground v.1.15,2013-06-25 05:05:00,
2013-06-24 23:15:00,76.7,38.2,29.45,South,175,0.0,0.0,25,0.00,,,0.00,Wunderground v.1.15,2013-06-25 05:15:00,
2013-06-24 23:20:00,76.2,39.8,29.46,South,175,0.0,0.0,27,0.00,,,0.00,Wunderground v.1.15,2013-06-25 05:20:00,
2013-06-24 23:25:00,75.5,38.2,29.46,SSE,166,0.0,2.0,26,0.00,,,0.00,Wunderground v.1.15,2013-06-25 05:25:00,
2013-06-24 23:30:00,75.3,38.0,29.46,SSE,161,1.0,1.0,26,0.00,,,0.00,Wunderground v.1.15,2013-06-25 05:30:00,
2013-06-24 23:35:00,75.3,38.0,29.46,SSE,160,1.0,1.0,26,0.00,,,0.00,Wunderground v.1.15,2013-06-25 05:35:00,
2013-06-24 23:45:00,75.0,38.7,29.46,SSE,157,1.0,1.0,27,0.00,,,0.00,Wunderground v.1.15,2013-06-25 05:45:00,
2013-06-24 23:50:00,74.7,38.5,29.46,SSE,157,0.0,0.0,27,0.00,,,0.00,Wunderground v.1.15,2013-06-25 05:50:00,